Time;durP1;ratioP1;P1;durP2;ratioP2;P2;SDS_P1;SDS_P2;PMS_P1;PMS_P2;Temp;Humidity;BMP_temperature;BMP_pressure;BME280_temperature;BME280_humidity;BME280_pressure;Samples;Min_cycle;Max_cycle;Signal;HPM_P1;HPM_P2
2022/10/01 00:00:05;;;;;;;21.33;11.38;;;;;;;10.13;73.64;99619.72;5053476;28;20504;-87
2022/10/01 00:02:36;;;;;;;19.77;10.25;;;;;;;10.11;73.43;99622.50;5089493;28;21030;-87
2022/10/01 00:05:08;;;;;;;17.25;9.77;;;;;;;10.03;73.35;99616.22;5059486;28;20464;-87
2022/10/01 00:07:43;;;;;;;20.85;11.13;;;;;;;9.97;73.54;99614.94;5064591;28;20097;-86
2022/10/01 00:10:10;;;;;;;26.38;11.27;;;;;;;9.99;73.73;99619.13;5042022;28;20129;-87
2022/10/01 00:12:38;;;;;;;20.75;10.68;;;;;;;10.05;73.32;99622.22;5059517;28;20055;-87
2022/10/01 00:15:08;;;;;;;20.35;10.80;;;;;;;9.95;73.73;99616.91;5069392;28;20044;-87
2022/10/01 00:17:40;;;;;;;16.13;10.27;;;;;;;9.97;73.41;99614.94;5072717;28;20055;-86
2022/10/01 00:20:07;;;;;;;20.92;10.65;;;;;;;10.03;73.04;99616.22;5066472;28;20044;-87
2022/10/01 00:22:39;;;;;;;;;;;;;;;9.61;73.73;99614.56;5072006;28;20069;-86
2022/10/01 00:25:06;;;;;;;21.60;10.75;;;;;;;9.89;73.61;99615.63;5049979;28;19923;-86
2022/10/01 00:27:34;;;;;;;24.63;11.10;;;;;;;9.92;73.65;99609.19;5073499;28;20040;-86
2022/10/01 00:30:03;;;;;;;27.45;11.60;;;;;;;9.92;73.31;99614.50;5075584;28;20126;-86
2022/10/01 00:32:33;;;;;;;26.67;10.80;;;;;;;9.95;73.49;99622.22;5075105;28;20063;-86
2022/10/01 00:35:01;;;;;;;23.85;11.43;;;;;;;9.96;73.62;99621.22;5075178;28;20075;-87
2022/10/01 00:37:28;;;;;;;21.75;11.30;;;;;;;9.99;73.63;99628.91;5054254;28;20048;-86
2022/10/01 00:39:55;;;;;;;25.02;11.85;;;;;;;9.94;73.25;99626.66;5052948;28;20036;-86
2022/10/01 00:42:25;;;;;;;24.83;11.55;;;;;;;10.00;72.55;99630.59;5042651;28;20097;-86
2022/10/01 00:44:52;;;;;;;25.10;10.93;;;;;;;9.97;73.29;99634.38;5053895;28;20044;-86
2022/10/01 00:47:45;;;;;;;22.55;10.43;;;;;;;9.90;72.82;99638.53;5050947;28;20519;-86
2022/10/01 00:50:27;;;;;;;24.97;11.07;;;;;;;9.80;73.59;99636.84;5085540;28;20102;-86
2022/10/01 00:52:56;;;;;;;24.48;10.75;;;;;;;9.76;73.55;99644.22;5058227;28;20055;-86
2022/10/01 00:55:26;;;;;;;25.45;10.95;;;;;;;9.80;73.22;99637.66;5050556;28;20046;-86
2022/10/01 00:57:53;;;;;;;21.95;10.85;;;;;;;9.85;72.92;99629.31;5054537;28;20055;-86
2022/10/01 01:00:20;;;;;;;25.13;10.60;;;;;;;9.80;72.88;99629.72;5062796;28;20044;-86
2022/10/01 01:02:47;;;;;;;21.63;10.07;;;;;;;9.80;72.76;99627.06;5066807;28;20039;-86
2022/10/01 01:05:14;;;;;;;22.20;10.13;;;;;;;9.77;73.35;99624.69;5058608;28;20050;-86
2022/10/01 01:07:44;;;;;;;23.92;10.65;;;;;;;9.74;72.93;99624.94;5074928;28;20040;-85
2022/10/01 01:10:12;;;;;;;21.38;11.00;;;;;;;9.74;73.80;99624.94;5075332;28;20032;-86
2022/10/01 01:12:49;;;;;;;20.05;10.35;;;;;;;9.65;73.39;99615.16;5075591;28;20126;-86
2022/10/01 01:15:35;;;;;;;16.73;10.05;;;;;;;9.54;73.51;99608.13;5040637;28;20047;-86
2022/10/01 01:18:17;;;;;;;24.85;10.50;;;;;;;9.51;73.82;99609.25;5073601;28;20083;-86
2022/10/01 01:20:58;;;;;;;20.55;9.68;;;;;;;9.62;73.76;99612.78;5034987;28;20446;-86
2022/10/01 01:23:34;;;;;;;22.25;10.55;;;;;;;9.62;73.37;99603.00;5070169;28;20044;-86
2022/10/01 01:26:06;;;;;;;24.75;10.57;;;;;;;9.66;72.92;99603.56;5054850;28;20044;-87
2022/10/01 01:28:36;;;;;;;20.55;10.27;;;;;;;9.60;73.63;99590.88;5089233;28;20036;-86
2022/10/01 01:31:17;;;;;;;19.08;10.50;;;;;;;9.55;72.80;99591.28;5055764;28;20093;-87
2022/10/01 01:33:46;;;;;;;20.58;9.75;;;;;;;9.71;72.69;99580.13;5040569;28;20040;-86
2022/10/01 01:36:17;;;;;;;25.77;11.43;;;;;;;9.75;72.53;99584.22;5051937;28;20073;-86
2022/10/01 01:38:48;;;;;;;22.45;11.10;;;;;;;9.69;72.98;99579.44;5087654;28;20085;-86
2022/10/01 01:41:15;;;;;;;26.20;10.13;;;;;;;9.67;73.63;99582.25;5050867;28;20380;-86
2022/10/01 01:43:45;;;;;;;23.08;10.45;;;;;;;9.63;73.85;99577.34;5059302;28;20031;-86
2022/10/01 01:46:16;;;;;;;25.25;11.02;;;;;;;9.69;73.59;99572.34;5071919;28;20056;-86
2022/10/01 01:48:46;;;;;;;26.50;9.93;;;;;;;9.78;73.49;99575.97;5037706;28;20103;-86
2022/10/01 01:51:22;;;;;;;22.95;11.80;;;;;;;9.70;73.42;99563.41;5069957;28;20043;-86
2022/10/01 01:53:49;;;;;;;24.25;11.63;;;;;;;9.73;73.97;99560.47;5053748;28;20051;-86
2022/10/01 01:56:16;;;;;;;25.52;12.23;;;;;;;9.80;74.09;99554.63;5058970;28;20399;-86
2022/10/01 01:58:43;;;;;;;31.60;12.50;;;;;;;9.79;74.20;99548.47;5073722;28;20040;-85
2022/10/01 02:01:30;;;;;;;25.27;11.70;;;;;;;9.55;74.78;99551.50;5074592;28;20498;-86
2022/10/01 02:03:57;;;;;;;27.08;11.35;;;;;;;9.80;74.08;99552.81;5042556;28;20113;-85
2022/10/01 02:06:32;;;;;;;28.67;11.75;;;;;;;9.67;74.33;99544.28;5067904;28;20047;-85
2022/10/01 02:09:10;;;;;;;22.50;11.65;;;;;;;9.67;73.96;99546.94;5076531;28;20541;-85
2022/10/01 02:11:45;;;;;;;21.85;10.93;;;;;;;9.68;73.86;99544.13;5060858;28;20047;-86
2022/10/01 02:14:21;;;;;;;22.50;11.70;;;;;;;9.66;73.73;99546.06;5068564;28;20059;-86
2022/10/01 02:16:55;;;;;;;26.08;12.10;;;;;;;9.67;74.46;99534.50;5053373;28;20105;-85
2022/10/01 02:19:48;;;;;;;25.02;11.70;;;;;;;9.57;75.04;99534.50;5087593;28;20047;-86
2022/10/01 02:22:18;;;;;;;27.90;11.57;;;;;;;9.68;75.07;99536.19;5073451;28;20578;-86
2022/10/01 02:24:45;;;;;;;22.50;11.00;;;;;;;9.77;74.92;99537.19;5068195;28;20122;-86
2022/10/01 02:27:17;;;;;;;24.85;11.70;;;;;;;9.68;75.10;99528.22;5076622;28;20106;-85
2022/10/01 02:29:44;;;;;;;25.88;12.60;;;;;;;9.74;74.80;99521.53;5058786;28;20427;-86
2022/10/01 02:32:12;;;;;;;21.40;11.23;;;;;;;9.77;74.68;99518.63;5061112;28;20055;-85
2022/10/01 02:34:39;;;;;;;24.00;11.45;;;;;;;9.79;74.49;99527.25;5053389;28;20101;-85
2022/10/01 02:37:06;;;;;;;22.35;11.07;;;;;;;9.78;74.67;99526.44;5075032;28;20543;-85
2022/10/01 02:39:34;;;;;;;23.20;10.45;;;;;;;9.81;74.79;99527.97;5087508;28;20050;-85
2022/10/01 02:42:03;;;;;;;19.90;10.48;;;;;;;9.74;74.97;99521.53;5039314;28;20056;-85
2022/10/01 02:44:36;;;;;;;21.13;10.70;;;;;;;9.74;74.77;99532.13;5073009;28;20081;-85
2022/10/01 02:47:08;;;;;;;18.70;10.77;;;;;;;9.73;74.87;99523.34;5060460;28;20375;-85
2022/10/01 02:49:40;;;;;;;29.42;11.88;;;;;;;9.77;74.79;99527.41;5073830;28;20035;-85
2022/10/01 02:52:15;;;;;;;26.13;11.73;;;;;;;9.77;74.82;99524.75;5058063;28;20120;-85
2022/10/01 02:54:45;;;;;;;33.65;11.50;;;;;;;9.74;74.52;99522.38;5053735;28;20089;-85
2022/10/01 02:57:25;;;;;;;26.23;12.02;;;;;;;9.67;75.28;99520.44;5076832;28;20498;-85
2022/10/01 02:59:57;;;;;;;22.13;10.70;;;;;;;9.76;74.50;99515.13;5066229;28;20055;-86
2022/10/01 03:02:30;;;;;;;24.77;10.93;;;;;;;9.77;74.45;99513.31;5056984;28;20457;-86
2022/10/01 03:04:57;;;;;;;23.33;10.93;;;;;;;9.82;74.03;99510.22;5078502;28;20118;-86
2022/10/01 03:07:25;;;;;;;20.02;10.65;;;;;;;9.73;74.73;99507.44;5052316;28;20044;-86
2022/10/01 03:09:52;;;;;;;24.85;11.52;;;;;;;9.73;74.86;99514.56;5059499;28;20102;-85
2022/10/01 03:12:19;;;;;;;22.33;10.55;;;;;;;9.67;74.92;99508.00;5057922;28;20066;-85
2022/10/01 03:14:46;;;;;;;27.77;13.32;;;;;;;9.68;74.96;99507.00;5074724;28;20086;-86
2022/10/01 03:17:13;;;;;;;24.17;11.45;;;;;;;9.67;75.13;99501.88;5075463;28;20483;-85
2022/10/01 03:19:41;;;;;;;24.50;10.35;;;;;;;9.62;75.36;99494.31;5049572;28;20048;-86
2022/10/01 03:22:09;;;;;;;25.50;11.10;;;;;;;9.61;75.16;99492.63;5048439;28;20048;-86
2022/10/01 03:24:36;;;;;;;21.58;11.23;;;;;;;9.59;75.06;99488.44;5051095;28;20478;-85
2022/10/01 03:27:03;;;;;;;25.35;10.57;;;;;;;9.63;74.88;99496.00;5061458;28;20094;-85
2022/10/01 03:29:29;;;;;;;21.70;10.32;;;;;;;9.59;75.24;99496.41;5077484;28;20040;-85
2022/10/01 03:31:56;;;;;;;30.23;11.70;;;;;;;9.61;75.21;99491.81;5050723;28;20063;-86
2022/10/01 03:34:23;;;;;;;18.52;10.77;;;;;;;9.60;75.16;99487.50;5068790;28;20058;-86
2022/10/01 03:36:51;;;;;;;22.23;10.85;;;;;;;9.65;74.87;99482.59;5066571;28;20036;-86
2022/10/01 03:39:18;;;;;;;28.42;12.23;;;;;;;9.69;75.13;99486.63;5058621;28;20052;-86
2022/10/01 03:41:45;;;;;;;23.90;10.98;;;;;;;9.67;75.36;99480.66;5058471;28;20117;-86
2022/10/01 03:44:11;;;;;;;19.55;10.70;;;;;;;9.63;75.49;99472.13;5072038;28;20622;-86
2022/10/01 03:46:38;;;;;;;25.02;10.90;;;;;;;9.64;75.31;99481.78;5068285;28;20044;-85
2022/10/01 03:49:05;;;;;;;22.75;11.70;;;;;;;9.62;75.50;99473.13;5075263;28;20080;-85
2022/10/01 03:51:32;;;;;;;21.38;10.48;;;;;;;9.70;75.26;99465.31;5054570;28;20048;-86
2022/10/01 03:53:59;;;;;;;22.27;11.00;;;;;;;9.64;75.34;99459.72;5054485;28;20046;-86
2022/10/01 03:56:26;;;;;;;22.85;10.70;;;;;;;9.63;75.54;99461.53;5039867;28;20101;-86
2022/10/01 03:58:53;;;;;;;31.70;12.68;;;;;;;9.64;75.84;99454.41;5039403;28;20051;-85
2022/10/01 04:01:20;;;;;;;21.42;10.20;;;;;;;9.63;76.38;99460.69;5059368;28;20528;-85
2022/10/01 04:03:49;;;;;;;21.30;10.57;;;;;;;9.59;76.77;99456.63;5050310;28;20175;-86
2022/10/01 04:06:15;;;;;;;23.95;11.10;;;;;;;9.64;76.46;99454.41;5069177;28;20036;-85
2022/10/01 04:08:42;;;;;;;29.15;10.60;;;;;;;9.71;76.14;99455.53;5054938;28;20051;-86
2022/10/01 04:11:09;;;;;;;23.92;11.30;;;;;;;9.69;76.08;99452.16;5058082;28;20044;-86
2022/10/01 04:13:36;;;;;;;18.20;10.38;;;;;;;9.70;76.41;99448.56;5059807;28;20071;-85
2022/10/01 04:16:03;;;;;;;18.10;10.90;;;;;;;9.69;76.83;99452.16;5072963;28;20058;-86
2022/10/01 04:18:31;;;;;;;23.63;11.38;;;;;;;9.73;76.26;99457.06;5056618;28;20090;-86
2022/10/01 04:20:57;;;;;;;26.67;12.70;;;;;;;9.76;76.17;99450.66;5074644;28;20077;-86
2022/10/01 04:23:25;;;;;;;20.60;10.25;;;;;;;9.77;76.35;99447.88;5059441;28;20052;-86
2022/10/01 04:25:51;;;;;;;27.17;12.85;;;;;;;9.75;76.81;99454.28;5077719;28;20088;-86
2022/10/01 04:28:18;;;;;;;22.77;11.50;;;;;;;9.78;76.82;99441.56;5064969;28;20079;-85
2022/10/01 04:30:45;;;;;;;23.55;11.27;;;;;;;9.81;76.90;99442.28;5052489;27;20058;-85
2022/10/01 04:33:14;;;;;;;27.55;12.00;;;;;;;9.77;77.49;99447.03;5067286;28;20094;-85
2022/10/01 04:35:42;;;;;;;20.33;10.32;;;;;;;9.78;77.47;99446.88;5071971;28;20051;-85
2022/10/01 04:38:15;;;;;;;19.25;11.10;;;;;;;9.69;78.42;99441.56;5057444;28;20143;-85
2022/10/01 04:40:42;;;;;;;26.60;11.60;;;;;;;9.78;77.97;99438.09;5059380;28;20097;-85
2022/10/01 04:43:10;;;;;;;21.90;12.60;;;;;;;9.82;78.11;99449.25;5055452;28;20063;-86
2022/10/01 04:45:37;;;;;;;22.83;11.32;;;;;;;9.82;78.33;99443.94;5068978;28;20044;-85
2022/10/01 04:48:04;;;;;;;22.02;10.52;;;;;;;9.82;78.23;99443.94;5034092;28;20048;-85
2022/10/01 04:50:31;;;;;;;21.63;11.05;;;;;;;9.84;78.57;99442.00;5042416;28;20052;-85
2022/10/01 04:52:57;;;;;;;17.75;10.15;;;;;;;9.86;78.59;99445.34;5067656;28;20081;-85
2022/10/01 04:55:24;;;;;;;20.35;10.75;;;;;;;9.87;78.51;99436.41;5042764;28;20067;-85
2022/10/01 04:57:51;;;;;;;23.63;10.48;;;;;;;9.87;78.85;99444.34;5069464;28;20461;-85
2022/10/01 05:00:20;;;;;;;21.20;10.80;;;;;;;9.94;78.50;99445.47;5063739;28;20092;-85
2022/10/01 05:02:48;;;;;;;23.50;11.00;;;;;;;9.92;78.71;99450.94;5089077;28;20044;-86
2022/10/01 05:05:16;;;;;;;24.40;11.00;;;;;;;9.94;78.97;99451.59;5064056;28;20395;-85
2022/10/01 05:07:43;;;;;;;23.63;10.93;;;;;;;9.98;78.97;99449.53;5083427;28;20044;-85
2022/10/01 05:10:18;;;;;;;25.20;11.88;;;;;;;9.96;79.30;99451.47;5053808;28;20089;-85
2022/10/01 05:12:46;;;;;;;25.75;12.18;;;;;;;10.03;78.79;99443.81;5035596;28;20036;-85
2022/10/01 05:15:14;;;;;;;19.38;11.00;;;;;;;10.00;79.57;99442.25;5047553;28;20040;-84
2022/10/01 05:17:40;;;;;;;26.35;11.25;;;;;;;10.00;79.93;99436.97;5043069;28;20452;-86
2022/10/01 05:20:14;;;;;;;22.38;11.45;;;;;;;10.01;80.17;99441.28;5065898;28;20082;-86
2022/10/01 05:22:41;;;;;;;21.85;11.27;;;;;;;10.01;80.74;99438.63;5051417;28;20505;-87
2022/10/01 05:25:08;;;;;;;22.75;11.43;;;;;;;10.07;80.25;99434.56;5053943;28;20482;-87
2022/10/01 05:27:36;;;;;;;20.85;10.90;;;;;;;10.08;80.40;99436.25;5064027;28;20144;-86
2022/10/01 05:30:04;;;;;;;24.33;12.02;;;;;;;10.09;80.62;99436.09;5092820;28;20040;-87
2022/10/01 05:32:30;;;;;;;22.35;10.90;;;;;;;10.10;80.79;99434.25;5066644;28;20044;-87
2022/10/01 05:34:57;;;;;;;20.75;11.00;;;;;;;10.10;81.07;99440.44;5056523;28;20056;-87
2022/10/01 05:37:24;;;;;;;21.02;11.32;;;;;;;10.15;80.46;99435.53;5053765;28;20483;-87
2022/10/01 05:39:51;;;;;;;30.20;12.70;;;;;;;10.14;80.91;99423.22;5036422;28;20109;-87
2022/10/01 05:42:17;;;;;;;24.23;11.40;;;;;;;10.12;81.42;99425.19;5068754;28;20074;-87
2022/10/01 05:44:45;;;;;;;23.13;12.30;;;;;;;10.13;81.89;99420.75;5070415;28;20044;-88
2022/10/01 05:47:12;;;;;;;22.23;11.40;;;;;;;10.17;81.65;99420.28;5084210;28;20163;-88
2022/10/01 05:49:43;;;;;;;22.23;11.15;;;;;;;10.16;82.02;99417.78;5037285;28;20043;-87
2022/10/01 05:52:11;;;;;;;25.00;12.63;;;;;;;10.13;81.98;99418.91;5070397;28;20434;-87
2022/10/01 05:54:38;;;;;;;24.58;12.70;;;;;;;10.15;82.51;99418.75;5072475;28;20047;-87
2022/10/01 05:57:06;;;;;;;21.30;11.75;;;;;;;10.14;82.50;99417.09;5055565;28;20055;-87
2022/10/01 05:59:34;;;;;;;27.38;13.40;;;;;;;10.17;82.20;99420.28;5085383;28;20051;-86
2022/10/01 06:02:00;;;;;;;24.38;12.45;;;;;;;10.17;82.90;99414.16;5052039;28;20051;-86
2022/10/01 06:04:27;;;;;;;26.25;12.32;;;;;;;10.16;83.14;99415.16;5059852;28;20089;-86
2022/10/01 06:06:55;;;;;;;24.58;12.80;;;;;;;10.20;82.83;99406.75;5057435;28;20109;-86
2022/10/01 06:09:22;;;;;;;22.60;12.55;;;;;;;10.23;82.75;99402.97;5096345;28;20122;-85
2022/10/01 06:11:48;;;;;;;22.33;12.07;;;;;;;10.24;82.88;99399.34;5057502;28;20052;-86
2022/10/01 06:14:15;;;;;;;22.77;12.00;;;;;;;10.28;82.94;99400.75;5060024;28;20146;-86
2022/10/01 06:16:42;;;;;;;21.52;10.82;;;;;;;10.32;82.88;99407.44;5078333;28;20043;-85
2022/10/01 06:19:09;;;;;;;18.55;10.52;;;;;;;10.36;83.22;99406.19;5041833;28;20138;-85
2022/10/01 06:21:36;;;;;;;14.65;8.35;;;;;;;10.38;83.40;99403.34;5058735;28;20441;-85
2022/10/01 06:24:04;;;;;;;15.18;8.77;;;;;;;10.37;83.94;99399.88;5084587;28;20090;-85
2022/10/01 06:26:30;;;;;;;17.95;8.27;;;;;;;10.39;84.15;99395.25;5066287;28;20055;-85
2022/10/01 06:28:57;;;;;;;12.90;7.07;;;;;;;10.41;84.20;99392.47;5071602;28;20449;-86
2022/10/01 06:31:24;;;;;;;15.45;6.30;;;;;;;10.48;83.92;99398.88;5071635;28;20036;-85
2022/10/01 06:33:51;;;;;;;18.40;7.30;;;;;;;10.54;83.38;99398.28;5042041;28;20071;-85
2022/10/01 06:36:17;;;;;;;18.35;7.25;;;;;;;10.51;84.40;99392.44;5060767;28;20069;-85
2022/10/01 06:38:47;;;;;;;12.85;7.53;;;;;;;10.54;84.44;99400.09;5071455;28;20148;-85
2022/10/01 06:41:14;;;;;;;19.17;7.75;;;;;;;10.59;83.80;99401.34;5081523;28;20073;-85
2022/10/01 06:43:40;;;;;;;13.77;8.20;;;;;;;10.62;83.90;99394.91;5075013;28;20093;-85
2022/10/01 06:46:07;;;;;;;14.23;7.10;;;;;;;10.62;84.09;99398.38;5056833;28;20043;-85
2022/10/01 06:48:35;;;;;;;12.38;6.65;;;;;;;10.61;84.58;99396.72;5054692;28;20035;-85
2022/10/01 06:51:03;;;;;;;8.00;5.80;;;;;;;10.67;83.81;99395.28;5072641;28;20051;-85
2022/10/01 06:53:30;;;;;;;13.05;6.55;;;;;;;10.68;84.27;99391.63;5070625;28;20407;-85
2022/10/01 06:56:05;;;;;;;12.20;6.38;;;;;;;10.65;84.70;99390.13;5058777;28;20149;-84
2022/10/01 06:58:32;;;;;;;10.18;5.90;;;;;;;10.69;84.05;99388.03;5073337;28;20047;-84
2022/10/01 07:01:00;;;;;;;19.63;6.88;;;;;;;10.71;84.10;99383.41;5074362;28;20088;-84
2022/10/01 07:03:28;;;;;;;10.15;6.22;;;;;;;10.75;84.13;99373.31;5064166;28;20422;-84
2022/10/01 07:06:00;;;;;;;10.40;6.82;;;;;;;10.74;84.53;99384.94;5048665;28;20075;-84
2022/10/01 07:08:27;;;;;;;17.63;8.13;;;;;;;10.77;83.95;99379.31;5071565;28;20067;-84
2022/10/01 07:10:59;;;;;;;31.15;12.35;;;;;;;10.76;84.24;99377.63;5063703;28;20469;-84
2022/10/01 07:13:25;;;;;;;24.98;11.65;;;;;;;10.79;84.11;99366.72;5077459;28;20448;-84
2022/10/01 07:15:52;;;;;;;12.93;7.57;;;;;;;10.81;83.98;99370.91;5082262;28;20073;-84
2022/10/01 07:18:19;;;;;;;13.68;6.85;;;;;;;10.84;83.82;99372.44;5076946;28;20040;-84
2022/10/01 07:20:46;;;;;;;9.68;5.95;;;;;;;10.82;84.19;99372.56;5050248;28;20491;-78
2022/10/01 07:23:14;;;;;;;11.73;5.88;;;;;;;10.84;84.36;99383.06;5061469;28;20479;-79
2022/10/01 07:25:42;;;;;;;10.02;6.07;;;;;;;10.83;84.49;99381.38;5080389;28;20040;-78
2022/10/01 07:28:18;;;;;;;9.55;6.13;;;;;;;10.76;85.44;99381.13;5068247;28;20044;-77
2022/10/01 07:31:09;;;;;;;21.05;7.97;;;;;;;10.72;86.31;99377.09;5102661;28;20375;-78
2022/10/01 07:33:36;;;;;;;14.55;6.68;;;;;;;10.85;84.53;99374.09;5085211;28;20027;-77
2022/10/01 07:36:05;;;;;;;14.73;7.03;;;;;;;10.85;84.62;99374.91;5073309;28;20101;-78
2022/10/01 07:38:32;;;;;;;12.35;7.18;;;;;;;10.85;85.00;99374.91;5062966;28;20055;-78
2022/10/01 07:41:01;;;;;;;14.68;6.40;;;;;;;10.87;85.22;99380.09;5082176;28;20085;-77
2022/10/01 07:43:29;;;;;;;12.18;5.43;;;;;;;10.86;85.33;99371.28;5072485;28;20048;-77
2022/10/01 07:45:57;;;;;;;10.75;6.07;;;;;;;10.90;85.07;99368.34;5083485;28;20040;-78
2022/10/01 07:48:24;;;;;;;14.45;6.53;;;;;;;10.92;85.13;99388.47;5088134;28;20070;-78
2022/10/01 07:50:51;;;;;;;10.48;5.70;;;;;;;10.93;84.54;99370.69;5063362;28;20430;-79
2022/10/01 07:53:18;;;;;;;9.63;5.82;;;;;;;10.94;84.62;99373.22;5081411;28;20085;-79
2022/10/01 07:55:45;;;;;;;10.70;6.05;;;;;;;10.95;84.83;99371.38;5068556;28;20378;-78
2022/10/01 07:58:12;;;;;;;9.48;6.10;;;;;;;10.96;84.62;99373.88;5069760;28;20530;-79
2022/10/01 08:00:39;;;;;;;13.82;7.47;;;;;;;10.95;84.92;99369.56;5085074;28;20074;-79
2022/10/01 08:03:05;;;;;;;12.35;7.13;;;;;;;10.97;84.69;99364.94;5073439;28;20055;-79
2022/10/01 08:05:34;;;;;;;9.65;6.10;;;;;;;10.98;84.89;99366.59;5071085;28;20055;-78
2022/10/01 08:08:05;;;;;;;15.20;6.82;;;;;;;10.99;84.61;99362.97;5069055;28;20090;-79
2022/10/01 08:10:35;;;;;;;11.43;6.88;;;;;;;11.02;84.81;99356.53;5088903;28;20036;-79
2022/10/01 08:13:12;;;;;;;9.68;6.13;;;;;;;11.02;84.36;99346.72;5084312;28;20048;-79
2022/10/01 08:15:40;;;;;;;14.88;6.40;;;;;;;11.05;84.42;99351.72;5086138;28;20429;-79
2022/10/01 08:18:07;;;;;;;16.42;8.52;;;;;;;11.03;84.90;99347.56;5085967;28;20051;-79
2022/10/01 08:20:33;;;;;;;21.38;9.55;;;;;;;11.05;84.68;99358.88;5103437;28;20040;-79
2022/10/01 08:23:05;;;;;;;15.48;7.70;;;;;;;11.05;84.65;99364.19;5084287;28;20040;-78
2022/10/01 08:25:32;;;;;;;15.30;6.90;;;;;;;11.07;84.65;99371.03;5069396;28;20039;-78
2022/10/01 08:27:59;;;;;;;11.93;6.85;;;;;;;11.08;84.94;99364.72;5081922;28;20459;-78
2022/10/01 08:30:26;;;;;;;17.85;6.75;;;;;;;11.09;85.07;99378.81;5097698;28;20036;-78
2022/10/01 08:32:54;;;;;;;11.73;6.03;;;;;;;11.09;85.07;99392.09;5082604;28;20047;-78
2022/10/01 08:35:22;;;;;;;12.13;6.25;;;;;;;11.10;85.00;99399.09;5081187;28;20097;-78
2022/10/01 08:37:49;;;;;;;14.82;6.85;;;;;;;11.10;85.13;99393.78;5064406;28;20071;-78
2022/10/01 08:40:17;;;;;;;16.75;8.80;;;;;;;11.13;85.13;99395.31;5085190;28;20047;-78
2022/10/01 08:42:52;;;;;;;15.68;7.75;;;;;;;11.08;85.65;99391.28;5088955;28;20040;-78
2022/10/01 08:45:24;;;;;;;15.82;8.75;;;;;;;11.12;85.49;99391.84;5063676;28;20497;-78
2022/10/01 08:48:11;;;;;;;17.73;8.37;;;;;;;11.10;85.80;99396.44;5081124;28;20040;-78
2022/10/01 08:50:53;;;;;;;22.90;10.00;;;;;;;11.14;85.48;99394.31;5064769;28;20329;-78
2022/10/01 08:53:34;;;;;;;14.85;7.72;;;;;;;11.11;86.35;99390.13;5084676;28;20071;-78
2022/10/01 08:56:02;;;;;;;18.08;9.48;;;;;;;11.18;85.70;99387.72;5082867;28;20130;-78
2022/10/01 08:58:39;;;;;;;14.13;8.32;;;;;;;11.18;85.71;99382.41;5083568;28;20055;-78
2022/10/01 09:01:07;;;;;;;15.80;9.02;;;;;;;11.19;85.79;99392.03;5099757;28;20052;-78
2022/10/01 09:03:34;;;;;;;15.63;8.70;;;;;;;11.21;86.00;99387.41;5078785;28;20039;-78
2022/10/01 09:06:02;;;;;;;18.15;8.98;;;;;;;11.22;85.91;99378.44;5078497;28;20211;-78
2022/10/01 09:08:43;;;;;;;15.93;9.40;;;;;;;11.17;86.45;99380.72;5090789;28;20051;-78
2022/10/01 09:11:46;;;;;;;18.52;9.73;;;;;;;11.21;86.32;99380.28;5082672;28;20074;-77
2022/10/01 09:14:44;;;;;;;17.00;11.15;;;;;;;11.17;86.67;99381.59;5027177;28;20096;-78
2022/10/01 09:17:21;;;;;;;18.20;9.95;;;;;;;11.22;86.29;99363.38;5098842;28;20455;-78
2022/10/01 09:20:11;;;;;;;15.25;8.68;;;;;;;11.24;86.08;99331.31;5088915;28;20097;-78
2022/10/01 09:23:03;;;;;;;11.88;7.50;;;;;;;11.21;86.60;99286.44;5070765;28;20072;-78
2022/10/01 09:25:30;;;;;;;9.90;5.57;;;;;;;11.30;85.58;99354.63;5088305;28;20051;-78
2022/10/01 09:28:06;;;;;;;12.48;5.90;;;;;;;11.28;85.89;99369.88;5084945;28;20062;-78
2022/10/01 09:30:33;;;;;;;12.35;6.18;;;;;;;11.32;85.98;99375.72;5104407;27;20039;-79
2022/10/01 09:33:11;;;;;;;10.80;6.13;;;;;;;11.27;86.40;99366.41;5054052;28;20071;-78
2022/10/01 09:36:05;;;;;;;13.90;5.15;;;;;;;11.28;86.44;99380.53;5082831;28;20081;-79
2022/10/01 09:38:39;;;;;;;7.82;5.00;;;;;;;11.28;86.32;99388.50;5098020;28;20077;-78
2022/10/01 09:41:06;;;;;;;;;;;;;;;11.15;87.89;99410.13;5082735;28;20039;-79
2022/10/01 09:43:35;;;;;;;9.43;5.15;;;;;;;11.28;86.71;99402.63;5089832;28;20423;-78
2022/10/01 09:46:03;;;;;;;11.18;5.60;;;;;;;11.29;86.94;99392.81;5085686;28;20105;-78
2022/10/01 09:48:40;;;;;;;11.15;5.60;;;;;;;11.27;86.93;99400.09;5061382;28;20165;-79
2022/10/01 09:51:07;;;;;;;12.88;5.70;;;;;;;11.32;86.68;99392.50;5058606;28;20109;-79
2022/10/01 09:53:42;;;;;;;10.73;5.20;;;;;;;11.29;87.27;99388.31;5071153;28;20048;-79
2022/10/01 09:56:15;;;;;;;11.30;5.25;;;;;;;11.33;87.30;99385.38;5099456;28;20043;-79
2022/10/01 09:58:46;;;;;;;7.43;4.13;;;;;;;11.35;86.95;99383.38;5083098;28;20044;-79
2022/10/01 10:01:21;;;;;;;10.63;5.28;;;;;;;11.34;87.34;99379.91;5085968;28;20490;-79
2022/10/01 10:03:55;;;;;;;12.07;5.90;;;;;;;11.35;87.41;99384.25;5088829;28;20044;-79
2022/10/01 10:06:28;;;;;;;12.05;5.90;;;;;;;11.38;87.73;99375.13;5070897;28;20056;-79
2022/10/01 10:08:56;;;;;;;8.43;4.30;;;;;;;11.40;87.21;99379.31;5086148;28;20119;-79
2022/10/01 10:11:25;;;;;;;8.77;4.60;;;;;;;11.43;87.05;99373.69;5096986;28;20097;-79
2022/10/01 10:13:55;;;;;;;10.95;4.97;;;;;;;11.43;86.97;99381.66;5084168;28;20075;-79
2022/10/01 10:16:31;;;;;;;8.48;4.10;;;;;;;11.45;87.03;99374.38;5071579;28;20089;-79
2022/10/01 10:19:08;;;;;;;6.53;3.55;;;;;;;11.48;87.15;99374.06;5086397;28;20047;-79
2022/10/01 10:21:35;;;;;;;10.25;3.75;;;;;;;11.49;87.15;99374.91;5076879;28;20101;-79
2022/10/01 10:24:04;;;;;;;6.97;4.10;;;;;;;11.50;87.22;99366.78;5076269;28;20131;-79
2022/10/01 10:26:36;;;;;;;8.82;3.60;;;;;;;11.53;87.55;99370.94;5045426;28;20441;-79
2022/10/01 10:29:04;;;;;;;;;;;;;;;11.38;88.78;99365.34;5069432;28;20093;-79
2022/10/01 10:31:41;;;;;;;5.18;3.17;;;;;;;11.48;87.78;99363.44;5067904;28;19954;-79
2022/10/01 10:34:30;;;;;;;7.80;2.92;;;;;;;11.50;87.67;99368.59;5079575;28;20429;-79
2022/10/01 10:36:58;;;;;;;5.38;2.95;;;;;;;11.56;87.63;99367.97;5102001;28;20032;-80
2022/10/01 10:39:31;;;;;;;8.57;3.30;;;;;;;11.57;87.36;99374.13;5068572;28;20148;-79
2022/10/01 10:41:59;;;;;;;4.25;2.83;;;;;;;11.56;88.43;99373.28;5074247;28;20055;-79
2022/10/01 10:44:33;;;;;;;5.50;2.90;;;;;;;11.59;88.26;99367.66;5086771;28;20044;-79
2022/10/01 10:47:02;;;;;;;5.57;3.22;;;;;;;11.61;87.58;99372.84;5075189;28;20056;-79
2022/10/01 10:49:31;;;;;;;7.93;3.40;;;;;;;11.64;87.78;99375.19;5087996;28;20047;-79
2022/10/01 10:51:59;;;;;;;5.88;3.50;;;;;;;11.65;87.69;99375.03;5079379;28;20067;-80
2022/10/01 10:54:32;;;;;;;8.20;3.22;;;;;;;11.63;87.56;99385.00;5071928;28;20036;-81
2022/10/01 10:57:15;;;;;;;6.57;2.90;;;;;;;11.67;87.71;99377.53;5085488;28;20125;-81
2022/10/01 10:59:41;;;;;;;5.40;2.50;;;;;;;11.66;87.48;99378.53;5083303;28;20089;-80
2022/10/01 11:02:15;;;;;;;5.25;2.67;;;;;;;11.66;87.66;99378.53;5081694;28;20052;-81
2022/10/01 11:04:43;;;;;;;3.97;2.58;;;;;;;11.70;87.60;99378.06;5068400;28;20778;-81
2022/10/01 11:07:12;;;;;;;3.75;2.45;;;;;;;11.72;87.38;99381.41;5072643;28;20105;-80
2022/10/01 11:10:02;;;;;;;4.28;2.83;;;;;;;11.67;88.00;99375.69;5083861;28;20044;-80
2022/10/01 11:12:48;;;;;;;5.20;2.97;;;;;;;11.68;88.37;99376.56;5082712;28;20092;-80
2022/10/01 11:15:33;;;;;;;6.75;3.00;;;;;;;11.66;87.94;99368.72;5093000;28;20292;-80
2022/10/01 11:18:11;;;;;;;5.38;2.70;;;;;;;11.72;88.15;99369.94;5057040;28;20059;-81
2022/10/01 11:21:09;;;;;;;5.10;2.03;;;;;;;11.70;88.17;99371.91;5103777;28;20059;-79
2022/10/01 11:23:54;;;;;;;3.75;2.10;;;;;;;11.76;87.74;99365.16;5101076;28;20047;-79
2022/10/01 11:26:29;;;;;;;4.50;2.22;;;;;;;11.74;88.52;99359.97;5096005;28;20035;-80
2022/10/01 11:29:38;;;;;;;5.07;2.83;;;;;;;11.71;89.07;99363.78;5077621;28;20040;-78
2022/10/01 11:32:30;;;;;;;5.75;2.92;;;;;;;11.74;88.78;99367.97;5099001;27;20453;-78
2022/10/01 11:35:21;;;;;;;7.03;2.05;;;;;;;11.79;88.53;99365.66;5074183;28;20070;-80
2022/10/01 11:37:53;;;;;;;5.93;2.30;;;;;;;11.85;88.84;99366.88;5086634;28;20051;-80
2022/10/01 11:40:24;;;;;;;2.95;2.13;;;;;;;11.84;88.79;99366.03;5085539;28;20092;-80
2022/10/01 11:42:55;;;;;;;4.95;2.15;;;;;;;11.86;88.44;99361.44;5074279;28;20036;-81